Flight Track Log - Related Links

Times and Time Zones

All times are in EST time to prevent confusion due to time zone crossing. See the N1926A flight status page for this flight to view local times or setup timezone preferences in your user account.

Time Position Orientation Groundspeed Altitude Reporting Facility
EST Latitude Longitude Course Direction KTS MPH feet Rate Location/Type
Mon 03:32:00 PM 32.4183 -86.1107 257° West  Level Estimated
Mon 03:33:00 PM 32.4015 -86.1494 243° Southwest  Level FlightAware Approximate
Mon 03:34:00 PM 32.3855 -86.1885 257° West  Level Estimated
Mon 03:35:00 PM 32.3694 -86.2275 257° West  Level Estimated
Mon 03:36:00 PM 32.3533 -86.2666 257° West  Level Estimated
Mon 03:37:00 PM 32.3372 -86.3056 257° West  Level Estimated
Mon 03:38:00 PM 32.3211 -86.3446 257° West  Level Estimated
Mon 03:39:00 PM 32.3000 -86.3833 257° West  Level FlightAware Approximate
Mon 03:40:00 PM 32.3006 -86.3940 257° West  Level Estimated
Mon 03:41:00 PM 32.3006 -86.3940 257° West  Level Estimated
Mon 03:42:00 PM 32.3006 -86.3940 257° West  Level Estimated
Mon 03:43:00 PM 32.3006 -86.3940 257° West  Level Estimated
Mon 03:44:00 PM 32.3006 -86.3940 257° West  Level Estimated
Mon 03:45:00 PM 32.3006 -86.3940 257° West  Level Estimated
Mon 03:46:00 PM 32.3006 -86.3940 257° West  Level Estimated
Mon 03:47:00 PM 32.3006 -86.3940 257° West  Level Estimated
Mon 03:48:00 PM 32.3006 -86.3940 257° West  Level Estimated
Mon 03:49:00 PM 32.3006 -86.3940 257° West  Level Estimated
Mon 03:50:00 PM 32.3006 -86.3940 257° West  Level Estimated
Mon 03:51:00 PM 32.3006 -86.3940 257° West  Level Estimated
Mon 03:52:00 PM 32.3006 -86.3940 257° West  Level Estimated
Mon 03:53:00 PM 32.3006 -86.3940 257° West  Level Estimated
Mon 03:54:00 PM 32.3006 -86.3940 257° West  Level Estimated
Mon 03:55:00 PM 32.3006 -86.3940 257° West  Level Estimated

Login

Don't have an account? Register now (free) for customized features, flight alerts, and more!